VNKT/KTM METAR and TAF weather

Enter ICAO airport designator
Station Type Date Time Source
VNKT METAR 2019/04/24 16:20 UTC NOAA

VNKT 241620Z 14004KT 100V220 7000 FEW015 SCT030 BKN100 22/16 Q1019 NOSIG


Station Type Date Time Source
VNKT Decoded METAR 2019/04/24 16:20 UTC NOAA

Kathmandu Airport, Nepal (VNKT) 27-42N 085-22E 1337M
Apr 24, 2019 - 12:20 PM EDT / 2019.04.24 1620 UTC
Wind: from the SE (140 degrees) at 5 MPH (4 KT) (direction variable):0
Visibility: 4 mile(s):0
Sky conditions: mostly cloudy
Temperature: 71 F (22 C)
Dew Point: 60 F (16 C)
Relative Humidity: 68%
Pressure (altimeter): 30.09 in. Hg (1019 hPa)
ob: VNKT 241620Z 14004KT 100V220 7000 FEW015 SCT030 BKN100 22/16 Q1019 NOSIG
cycle: 16

Station Type Date Time Source
VNKT TAF 2019/04/24 12:39 UTC NOAA

TAF VNKT 241100Z 2412/2512 08004KT 6000 FEW015 SCT030 BKN100 PROB40 2412/2416 4000 -TSRA FEW025CB
BECMG 2414/2415 VRB02KT 6000 FEW015 SCT100
BECMG 2500/2502 00000KT 3000 BR FEW010 SCT030 PROB30 2500/2503 1500 BR
BECMG 2503/2504 09003KT 5000 BR/HZ FEW015 SCT100
BECMG 2507/2509 25009KT 8000 FEW020 SCT030 BKN100 PROB30
TEMPO 2507/2512 VRB12KT 5000 -TSRA FEW025CB

Example: see airport list